sensor_id;sensor_type;location;lat;lon;timestamp;P1;durP1;ratioP1;P2;durP2;ratioP2
26014;SDS011;13793;55.388;37.844;2022-12-29T00:00:59;8.10;;;2.60;;
26014;SDS011;13793;55.388;37.844;2022-12-29T00:03:30;5.83;;;2.67;;
26014;SDS011;13793;55.388;37.844;2022-12-29T00:06:00;5.10;;;2.43;;
26014;SDS011;13793;55.388;37.844;2022-12-29T00:08:31;4.43;;;2.20;;
26014;SDS011;13793;55.388;37.844;2022-12-29T00:11:11;6.67;;;2.40;;
26014;SDS011;13793;55.388;37.844;2022-12-29T00:13:44;4.07;;;2.03;;
26014;SDS011;13793;55.388;37.844;2022-12-29T00:16:32;7.27;;;2.10;;
26014;SDS011;13793;55.388;37.844;2022-12-29T00:19:04;6.63;;;2.43;;
26014;SDS011;13793;55.388;37.844;2022-12-29T00:21:34;7.57;;;2.00;;
26014;SDS011;13793;55.388;37.844;2022-12-29T00:24:22;6.53;;;1.97;;
26014;SDS011;13793;55.388;37.844;2022-12-29T00:29:55;7.30;;;2.13;;
26014;SDS011;13793;55.388;37.844;2022-12-29T00:32:43;6.00;;;2.23;;
26014;SDS011;13793;55.388;37.844;2022-12-29T00:35:33;6.87;;;2.23;;
26014;SDS011;13793;55.388;37.844;2022-12-29T00:38:08;9.63;;;2.62;;
26014;SDS011;13793;55.388;37.844;2022-12-29T00:40:57;6.07;;;2.27;;
26014;SDS011;13793;55.388;37.844;2022-12-29T00:43:45;6.10;;;2.10;;
26014;SDS011;13793;55.388;37.844;2022-12-29T00:46:34;4.83;;;1.93;;
26014;SDS011;13793;55.388;37.844;2022-12-29T00:49:09;6.67;;;2.10;;
26014;SDS011;13793;55.388;37.844;2022-12-29T00:54:32;5.70;;;2.00;;
26014;SDS011;13793;55.388;37.844;2022-12-29T00:57:04;6.17;;;2.00;;
26014;SDS011;13793;55.388;37.844;2022-12-29T00:59:36;5.97;;;2.30;;
26014;SDS011;13793;55.388;37.844;2022-12-29T01:02:08;8.77;;;4.10;;
26014;SDS011;13793;55.388;37.844;2022-12-29T01:04:39;10.73;;;3.40;;
26014;SDS011;13793;55.388;37.844;2022-12-29T01:07:09;6.70;;;2.20;;
26014;SDS011;13793;55.388;37.844;2022-12-29T01:09:40;9.27;;;2.43;;
26014;SDS011;13793;55.388;37.844;2022-12-29T01:12:29;7.33;;;2.27;;
26014;SDS011;13793;55.388;37.844;2022-12-29T01:15:13;5.27;;;1.90;;
26014;SDS011;13793;55.388;37.844;2022-12-29T01:17:44;6.47;;;2.20;;
26014;SDS011;13793;55.388;37.844;2022-12-29T01:20:14;9.30;;;2.37;;
26014;SDS011;13793;55.388;37.844;2022-12-29T01:22:45;8.27;;;2.53;;
26014;SDS011;13793;55.388;37.844;2022-12-29T01:25:15;6.67;;;1.90;;
26014;SDS011;13793;55.388;37.844;2022-12-29T01:27:46;5.10;;;1.70;;
26014;SDS011;13793;55.388;37.844;2022-12-29T01:30:17;6.90;;;2.03;;
26014;SDS011;13793;55.388;37.844;2022-12-29T01:32:47;5.13;;;1.80;;
26014;SDS011;13793;55.388;37.844;2022-12-29T01:35:19;8.77;;;2.20;;
26014;SDS011;13793;55.388;37.844;2022-12-29T01:37:49;7.53;;;2.10;;
26014;SDS011;13793;55.388;37.844;2022-12-29T01:40:20;7.97;;;1.70;;
26014;SDS011;13793;55.388;37.844;2022-12-29T01:42:50;13.57;;;2.27;;
26014;SDS011;13793;55.388;37.844;2022-12-29T01:45:21;6.20;;;1.50;;
26014;SDS011;13793;55.388;37.844;2022-12-29T01:47:58;9.20;;;2.00;;
26014;SDS011;13793;55.388;37.844;2022-12-29T01:50:29;6.20;;;1.77;;
26014;SDS011;13793;55.388;37.844;2022-12-29T01:53:09;10.13;;;2.27;;
26014;SDS011;13793;55.388;37.844;2022-12-29T01:55:43;9.80;;;2.10;;
26014;SDS011;13793;55.388;37.844;2022-12-29T01:58:18;5.17;;;2.27;;
26014;SDS011;13793;55.388;37.844;2022-12-29T02:00:50;5.83;;;2.10;;
26014;SDS011;13793;55.388;37.844;2022-12-29T02:03:20;5.43;;;1.80;;
26014;SDS011;13793;55.388;37.844;2022-12-29T02:08:29;6.57;;;2.30;;
26014;SDS011;13793;55.388;37.844;2022-12-29T02:11:00;8.47;;;1.90;;
26014;SDS011;13793;55.388;37.844;2022-12-29T02:13:32;9.63;;;2.43;;
26014;SDS011;13793;55.388;37.844;2022-12-29T02:19:03;8.50;;;2.10;;
26014;SDS011;13793;55.388;37.844;2022-12-29T02:30:03;6.83;;;2.23;;
26014;SDS011;13793;55.388;37.844;2022-12-29T02:32:38;8.00;;;2.03;;
26014;SDS011;13793;55.388;37.844;2022-12-29T02:38:34;7.73;;;2.30;;
26014;SDS011;13793;55.388;37.844;2022-12-29T02:43:42;7.70;;;2.80;;
26014;SDS011;13793;55.388;37.844;2022-12-29T02:49:19;7.20;;;2.13;;
26014;SDS011;13793;55.388;37.844;2022-12-29T02:54:28;8.60;;;1.90;;
26014;SDS011;13793;55.388;37.844;2022-12-29T03:00:14;5.57;;;2.20;;
26014;SDS011;13793;55.388;37.844;2022-12-29T03:02:45;8.53;;;2.30;;
26014;SDS011;13793;55.388;37.844;2022-12-29T03:10:54;8.13;;;2.43;;
26014;SDS011;13793;55.388;37.844;2022-12-29T03:16:29;5.50;;;2.70;;
26014;SDS011;13793;55.388;37.844;2022-12-29T03:19:20;8.53;;;3.13;;
26014;SDS011;13793;55.388;37.844;2022-12-29T03:22:05;9.50;;;2.73;;
26014;SDS011;13793;55.388;37.844;2022-12-29T03:25:08;7.83;;;2.47;;
26014;SDS011;13793;55.388;37.844;2022-12-29T03:27:45;10.37;;;3.30;;
26014;SDS011;13793;55.388;37.844;2022-12-29T03:30:23;8.90;;;2.70;;
26014;SDS011;13793;55.388;37.844;2022-12-29T03:32:55;10.37;;;2.90;;
26014;SDS011;13793;55.388;37.844;2022-12-29T03:35:34;9.40;;;2.77;;
26014;SDS011;13793;55.388;37.844;2022-12-29T03:40:45;12.50;;;3.80;;
26014;SDS011;13793;55.388;37.844;2022-12-29T03:43:17;5.83;;;2.70;;
26014;SDS011;13793;55.388;37.844;2022-12-29T03:45:48;9.23;;;3.27;;
26014;SDS011;13793;55.388;37.844;2022-12-29T03:48:19;12.43;;;2.97;;
26014;SDS011;13793;55.388;37.844;2022-12-29T03:50:50;13.60;;;3.40;;
26014;SDS011;13793;55.388;37.844;2022-12-29T03:53:21;12.40;;;3.33;;
26014;SDS011;13793;55.388;37.844;2022-12-29T03:55:51;11.80;;;3.40;;
26014;SDS011;13793;55.388;37.844;2022-12-29T03:58:23;5.97;;;3.13;;
26014;SDS011;13793;55.388;37.844;2022-12-29T04:01:04;10.67;;;3.40;;
26014;SDS011;13793;55.388;37.844;2022-12-29T04:03:35;15.13;;;3.50;;
26014;SDS011;13793;55.388;37.844;2022-12-29T04:06:06;12.90;;;3.53;;
26014;SDS011;13793;55.388;37.844;2022-12-29T04:08:47;14.60;;;3.50;;
26014;SDS011;13793;55.388;37.844;2022-12-29T04:11:18;12.10;;;3.43;;
26014;SDS011;13793;55.388;37.844;2022-12-29T04:13:49;9.10;;;3.47;;
26014;SDS011;13793;55.388;37.844;2022-12-29T04:16:21;12.03;;;3.67;;
26014;SDS011;13793;55.388;37.844;2022-12-29T04:18:51;12.83;;;3.37;;
26014;SDS011;13793;55.388;37.844;2022-12-29T04:21:24;14.30;;;4.27;;
26014;SDS011;13793;55.388;37.844;2022-12-29T04:23:54;6.97;;;3.90;;
26014;SDS011;13793;55.388;37.844;2022-12-29T04:26:25;10.33;;;3.90;;
26014;SDS011;13793;55.388;37.844;2022-12-29T04:29:04;7.47;;;3.70;;
26014;SDS011;13793;55.388;37.844;2022-12-29T04:31:51;8.95;;;3.75;;
26014;SDS011;13793;55.388;37.844;2022-12-29T04:34:22;11.37;;;4.07;;
26014;SDS011;13793;55.388;37.844;2022-12-29T04:36:53;9.30;;;4.53;;
26014;SDS011;13793;55.388;37.844;2022-12-29T04:39:24;10.17;;;4.13;;
26014;SDS011;13793;55.388;37.844;2022-12-29T04:41:54;13.87;;;4.70;;
26014;SDS011;13793;55.388;37.844;2022-12-29T04:44:25;8.87;;;4.67;;
26014;SDS011;13793;55.388;37.844;2022-12-29T04:46:57;14.90;;;5.30;;
26014;SDS011;13793;55.388;37.844;2022-12-29T04:49:39;12.47;;;4.47;;
26014;SDS011;13793;55.388;37.844;2022-12-29T04:52:11;16.00;;;4.90;;
26014;SDS011;13793;55.388;37.844;2022-12-29T04:54:43;12.20;;;5.23;;
26014;SDS011;13793;55.388;37.844;2022-12-29T04:57:16;15.90;;;5.43;;
26014;SDS011;13793;55.388;37.844;2022-12-29T04:59:48;12.83;;;5.53;;
26014;SDS011;13793;55.388;37.844;2022-12-29T05:02:19;10.77;;;5.27;;
26014;SDS011;13793;55.388;37.844;2022-12-29T05:04:51;10.80;;;5.23;;
26014;SDS011;13793;55.388;37.844;2022-12-29T05:07:22;12.33;;;6.43;;
26014;SDS011;13793;55.388;37.844;2022-12-29T05:09:54;12.67;;;6.00;;
26014;SDS011;13793;55.388;37.844;2022-12-29T05:12:25;12.67;;;6.70;;
26014;SDS011;13793;55.388;37.844;2022-12-29T05:15:01;13.23;;;6.43;;
26014;SDS011;13793;55.388;37.844;2022-12-29T05:17:33;10.37;;;5.40;;
26014;SDS011;13793;55.388;37.844;2022-12-29T05:20:04;11.60;;;5.87;;
26014;SDS011;13793;55.388;37.844;2022-12-29T05:22:36;13.10;;;6.20;;
26014;SDS011;13793;55.388;37.844;2022-12-29T05:25:07;10.27;;;6.10;;
26014;SDS011;13793;55.388;37.844;2022-12-29T05:27:40;14.57;;;6.50;;
26014;SDS011;13793;55.388;37.844;2022-12-29T05:30:12;15.70;;;6.47;;
26014;SDS011;13793;55.388;37.844;2022-12-29T05:32:43;14.80;;;7.53;;
26014;SDS011;13793;55.388;37.844;2022-12-29T05:35:14;16.97;;;6.70;;
26014;SDS011;13793;55.388;37.844;2022-12-29T05:37:45;13.27;;;5.90;;
26014;SDS011;13793;55.388;37.844;2022-12-29T05:40:16;12.40;;;5.57;;
26014;SDS011;13793;55.388;37.844;2022-12-29T05:42:46;10.93;;;5.10;;
26014;SDS011;13793;55.388;37.844;2022-12-29T05:45:18;11.57;;;5.77;;
26014;SDS011;13793;55.388;37.844;2022-12-29T05:47:56;10.17;;;5.77;;
26014;SDS011;13793;55.388;37.844;2022-12-29T05:50:47;12.40;;;5.93;;
26014;SDS011;13793;55.388;37.844;2022-12-29T05:53:20;11.70;;;6.03;;
26014;SDS011;13793;55.388;37.844;2022-12-29T05:55:51;10.90;;;5.43;;
26014;SDS011;13793;55.388;37.844;2022-12-29T05:58:21;18.07;;;6.43;;
26014;SDS011;13793;55.388;37.844;2022-12-29T06:00:53;12.43;;;5.67;;
26014;SDS011;13793;55.388;37.844;2022-12-29T06:03:24;11.07;;;5.90;;
26014;SDS011;13793;55.388;37.844;2022-12-29T06:05:54;10.97;;;6.47;;
26014;SDS011;13793;55.388;37.844;2022-12-29T06:08:27;14.97;;;6.27;;
26014;SDS011;13793;55.388;37.844;2022-12-29T06:10:57;12.67;;;6.10;;
26014;SDS011;13793;55.388;37.844;2022-12-29T06:13:28;9.43;;;5.43;;
26014;SDS011;13793;55.388;37.844;2022-12-29T06:15:59;12.43;;;5.40;;
26014;SDS011;13793;55.388;37.844;2022-12-29T06:18:30;10.43;;;5.70;;
26014;SDS011;13793;55.388;37.844;2022-12-29T06:21:02;10.80;;;5.60;;
26014;SDS011;13793;55.388;37.844;2022-12-29T06:23:33;10.43;;;5.13;;
26014;SDS011;13793;55.388;37.844;2022-12-29T06:26:05;10.50;;;5.67;;
26014;SDS011;13793;55.388;37.844;2022-12-29T06:28:36;10.13;;;5.13;;
26014;SDS011;13793;55.388;37.844;2022-12-29T06:31:09;13.10;;;5.53;;
26014;SDS011;13793;55.388;37.844;2022-12-29T06:33:39;8.90;;;5.13;;
26014;SDS011;13793;55.388;37.844;2022-12-29T06:36:11;10.27;;;5.33;;
26014;SDS011;13793;55.388;37.844;2022-12-29T06:38:41;10.47;;;5.60;;
26014;SDS011;13793;55.388;37.844;2022-12-29T06:41:12;9.70;;;4.90;;
26014;SDS011;13793;55.388;37.844;2022-12-29T06:43:44;13.00;;;5.30;;
26014;SDS011;13793;55.388;37.844;2022-12-29T06:46:19;13.43;;;5.47;;
26014;SDS011;13793;55.388;37.844;2022-12-29T06:48:50;9.03;;;4.80;;
26014;SDS011;13793;55.388;37.844;2022-12-29T06:51:21;10.10;;;5.13;;
26014;SDS011;13793;55.388;37.844;2022-12-29T06:53:52;9.43;;;4.90;;
26014;SDS011;13793;55.388;37.844;2022-12-29T06:56:22;9.33;;;4.53;;
26014;SDS011;13793;55.388;37.844;2022-12-29T06:58:53;10.37;;;4.00;;
26014;SDS011;13793;55.388;37.844;2022-12-29T07:01:23;7.97;;;3.87;;
26014;SDS011;13793;55.388;37.844;2022-12-29T07:03:54;16.20;;;5.33;;
26014;SDS011;13793;55.388;37.844;2022-12-29T07:06:25;10.20;;;4.40;;
26014;SDS011;13793;55.388;37.844;2022-12-29T07:08:55;15.80;;;4.20;;
26014;SDS011;13793;55.388;37.844;2022-12-29T07:11:26;9.33;;;3.87;;
26014;SDS011;13793;55.388;37.844;2022-12-29T07:13:57;12.07;;;5.00;;
26014;SDS011;13793;55.388;37.844;2022-12-29T07:16:28;9.73;;;4.37;;
26014;SDS011;13793;55.388;37.844;2022-12-29T07:18:58;12.77;;;3.87;;
26014;SDS011;13793;55.388;37.844;2022-12-29T07:21:29;9.67;;;3.80;;
26014;SDS011;13793;55.388;37.844;2022-12-29T07:24:03;10.87;;;3.93;;
26014;SDS011;13793;55.388;37.844;2022-12-29T07:26:34;12.43;;;4.50;;
26014;SDS011;13793;55.388;37.844;2022-12-29T07:29:04;17.07;;;9.50;;
26014;SDS011;13793;55.388;37.844;2022-12-29T07:31:35;18.83;;;8.13;;
26014;SDS011;13793;55.388;37.844;2022-12-29T07:34:07;15.13;;;5.60;;
26014;SDS011;13793;55.388;37.844;2022-12-29T07:36:38;12.90;;;5.00;;
26014;SDS011;13793;55.388;37.844;2022-12-29T07:39:09;11.30;;;6.23;;
26014;SDS011;13793;55.388;37.844;2022-12-29T07:41:40;8.90;;;4.50;;
26014;SDS011;13793;55.388;37.844;2022-12-29T07:44:12;10.17;;;3.90;;
26014;SDS011;13793;55.388;37.844;2022-12-29T07:46:48;8.40;;;3.70;;
26014;SDS011;13793;55.388;37.844;2022-12-29T07:49:19;10.67;;;4.27;;
26014;SDS011;13793;55.388;37.844;2022-12-29T07:51:49;9.57;;;3.77;;
26014;SDS011;13793;55.388;37.844;2022-12-29T07:54:20;7.97;;;3.10;;
26014;SDS011;13793;55.388;37.844;2022-12-29T07:56:51;7.90;;;3.50;;
26014;SDS011;13793;55.388;37.844;2022-12-29T07:59:21;10.20;;;4.30;;
26014;SDS011;13793;55.388;37.844;2022-12-29T08:01:52;7.33;;;3.30;;
26014;SDS011;13793;55.388;37.844;2022-12-29T08:04:23;7.03;;;2.90;;
26014;SDS011;13793;55.388;37.844;2022-12-29T08:06:54;7.60;;;3.00;;
26014;SDS011;13793;55.388;37.844;2022-12-29T08:09:25;6.93;;;2.70;;
26014;SDS011;13793;55.388;37.844;2022-12-29T08:11:55;9.40;;;2.90;;
26014;SDS011;13793;55.388;37.844;2022-12-29T08:14:26;4.87;;;3.00;;
26014;SDS011;13793;55.388;37.844;2022-12-29T08:16:56;10.40;;;3.33;;
26014;SDS011;13793;55.388;37.844;2022-12-29T08:19:27;7.13;;;2.60;;
26014;SDS011;13793;55.388;37.844;2022-12-29T08:21:58;6.90;;;2.60;;
26014;SDS011;13793;55.388;37.844;2022-12-29T08:24:29;7.33;;;2.30;;
26014;SDS011;13793;55.388;37.844;2022-12-29T08:26:59;4.77;;;2.30;;
26014;SDS011;13793;55.388;37.844;2022-12-29T08:29:30;4.30;;;2.30;;
26014;SDS011;13793;55.388;37.844;2022-12-29T08:32:01;4.30;;;1.80;;
26014;SDS011;13793;55.388;37.844;2022-12-29T08:34:32;4.30;;;2.20;;
26014;SDS011;13793;55.388;37.844;2022-12-29T08:37:03;4.17;;;1.90;;
26014;SDS011;13793;55.388;37.844;2022-12-29T08:39:33;5.78;;;2.10;;
26014;SDS011;13793;55.388;37.844;2022-12-29T08:42:04;5.67;;;2.50;;
26014;SDS011;13793;55.388;37.844;2022-12-29T08:44:34;4.25;;;2.10;;
26014;SDS011;13793;55.388;37.844;2022-12-29T08:47:05;6.08;;;2.35;;
26014;SDS011;13793;55.388;37.844;2022-12-29T08:49:36;5.55;;;2.85;;
26014;SDS011;13793;55.388;37.844;2022-12-29T08:52:07;5.10;;;2.30;;
26014;SDS011;13793;55.388;37.844;2022-12-29T08:54:38;7.60;;;4.90;;
26014;SDS011;13793;55.388;37.844;2022-12-29T08:57:09;7.73;;;4.80;;
26014;SDS011;13793;55.388;37.844;2022-12-29T08:59:41;7.90;;;4.43;;
26014;SDS011;13793;55.388;37.844;2022-12-29T09:02:12;16.00;;;9.50;;
26014;SDS011;13793;55.388;37.844;2022-12-29T09:04:43;10.03;;;5.20;;
26014;SDS011;13793;55.388;37.844;2022-12-29T09:07:14;11.23;;;5.40;;
26014;SDS011;13793;55.388;37.844;2022-12-29T09:09:44;6.17;;;3.10;;
26014;SDS011;13793;55.388;37.844;2022-12-29T09:12:16;6.77;;;3.10;;
26014;SDS011;13793;55.388;37.844;2022-12-29T09:14:46;6.07;;;3.23;;
26014;SDS011;13793;55.388;37.844;2022-12-29T09:17:17;11.13;;;5.30;;
26014;SDS011;13793;55.388;37.844;2022-12-29T09:20:05;10.90;;;5.57;;
26014;SDS011;13793;55.388;37.844;2022-12-29T09:22:37;15.93;;;7.53;;
26014;SDS011;13793;55.388;37.844;2022-12-29T09:25:08;34.30;;;16.50;;
26014;SDS011;13793;55.388;37.844;2022-12-29T09:27:39;19.60;;;9.47;;
26014;SDS011;13793;55.388;37.844;2022-12-29T09:30:10;20.20;;;10.47;;
26014;SDS011;13793;55.388;37.844;2022-12-29T09:32:43;15.97;;;8.10;;
26014;SDS011;13793;55.388;37.844;2022-12-29T09:35:13;21.37;;;10.77;;
26014;SDS011;13793;55.388;37.844;2022-12-29T09:37:45;20.10;;;10.60;;
26014;SDS011;13793;55.388;37.844;2022-12-29T09:40:33;18.03;;;8.93;;
26014;SDS011;13793;55.388;37.844;2022-12-29T09:43:24;29.87;;;15.23;;
26014;SDS011;13793;55.388;37.844;2022-12-29T09:48:25;18.00;;;9.07;;
26014;SDS011;13793;55.388;37.844;2022-12-29T09:51:03;16.80;;;9.20;;
26014;SDS011;13793;55.388;37.844;2022-12-29T09:53:36;14.83;;;8.50;;
26014;SDS011;13793;55.388;37.844;2022-12-29T09:56:15;16.73;;;9.07;;
26014;SDS011;13793;55.388;37.844;2022-12-29T09:58:54;16.97;;;8.40;;
26014;SDS011;13793;55.388;37.844;2022-12-29T10:03:58;18.80;;;9.60;;
26014;SDS011;13793;55.388;37.844;2022-12-29T10:06:42;19.27;;;10.77;;
26014;SDS011;13793;55.388;37.844;2022-12-29T10:09:23;19.77;;;10.23;;
26014;SDS011;13793;55.388;37.844;2022-12-29T10:15:00;21.73;;;11.67;;
26014;SDS011;13793;55.388;37.844;2022-12-29T10:20:28;25.70;;;14.43;;
26014;SDS011;13793;55.388;37.844;2022-12-29T10:26:01;21.27;;;13.43;;
26014;SDS011;13793;55.388;37.844;2022-12-29T10:29:13;19.77;;;11.27;;
26014;SDS011;13793;55.388;37.844;2022-12-29T10:31:19;22.40;;;12.93;;
26014;SDS011;13793;55.388;37.844;2022-12-29T10:33:56;20.40;;;12.30;;
26014;SDS011;13793;55.388;37.844;2022-12-29T10:36:33;19.40;;;12.03;;
26014;SDS011;13793;55.388;37.844;2022-12-29T10:44:50;21.33;;;12.50;;
26014;SDS011;13793;55.388;37.844;2022-12-29T10:47:23;20.00;;;11.97;;
26014;SDS011;13793;55.388;37.844;2022-12-29T10:49:54;21.60;;;11.83;;
26014;SDS011;13793;55.388;37.844;2022-12-29T10:52:27;19.17;;;11.77;;
26014;SDS011;13793;55.388;37.844;2022-12-29T10:55:08;24.10;;;11.47;;
26014;SDS011;13793;55.388;37.844;2022-12-29T10:57:41;20.43;;;12.13;;
26014;SDS011;13793;55.388;37.844;2022-12-29T11:00:13;20.50;;;11.53;;
26014;SDS011;13793;55.388;37.844;2022-12-29T11:05:57;23.63;;;12.13;;
26014;SDS011;13793;55.388;37.844;2022-12-29T11:08:40;27.07;;;13.37;;
26014;SDS011;13793;55.388;37.844;2022-12-29T11:11:13;26.47;;;13.00;;
26014;SDS011;13793;55.388;37.844;2022-12-29T11:13:49;27.93;;;13.63;;
26014;SDS011;13793;55.388;37.844;2022-12-29T11:16:30;26.60;;;13.07;;
26014;SDS011;13793;55.388;37.844;2022-12-29T11:19:03;23.63;;;13.53;;
26014;SDS011;13793;55.388;37.844;2022-12-29T11:21:34;21.97;;;12.97;;
26014;SDS011;13793;55.388;37.844;2022-12-29T11:24:29;25.08;;;13.35;;
26014;SDS011;13793;55.388;37.844;2022-12-29T11:29:45;18.37;;;11.50;;
26014;SDS011;13793;55.388;37.844;2022-12-29T11:32:18;22.47;;;13.43;;
26014;SDS011;13793;55.388;37.844;2022-12-29T11:34:52;23.50;;;14.23;;
26014;SDS011;13793;55.388;37.844;2022-12-29T11:37:36;27.90;;;14.53;;
26014;SDS011;13793;55.388;37.844;2022-12-29T11:40:17;23.83;;;13.50;;
26014;SDS011;13793;55.388;37.844;2022-12-29T11:45:25;23.13;;;14.10;;
26014;SDS011;13793;55.388;37.844;2022-12-29T11:48:16;27.13;;;14.60;;
26014;SDS011;13793;55.388;37.844;2022-12-29T11:50:51;21.02;;;11.65;;
26014;SDS011;13793;55.388;37.844;2022-12-29T11:53:24;25.33;;;12.97;;
26014;SDS011;13793;55.388;37.844;2022-12-29T11:56:04;22.50;;;12.70;;
26014;SDS011;13793;55.388;37.844;2022-12-29T11:58:34;22.73;;;13.70;;
26014;SDS011;13793;55.388;37.844;2022-12-29T12:01:20;24.70;;;13.50;;
26014;SDS011;13793;55.388;37.844;2022-12-29T12:04:04;24.23;;;13.27;;
26014;SDS011;13793;55.388;37.844;2022-12-29T12:06:39;20.20;;;11.30;;
26014;SDS011;13793;55.388;37.844;2022-12-29T12:09:22;18.80;;;11.70;;
26014;SDS011;13793;55.388;37.844;2022-12-29T12:11:53;18.33;;;11.37;;
26014;SDS011;13793;55.388;37.844;2022-12-29T12:14:34;20.00;;;10.63;;
26014;SDS011;13793;55.388;37.844;2022-12-29T12:17:09;20.20;;;11.20;;
26014;SDS011;13793;55.388;37.844;2022-12-29T12:33:40;22.13;;;12.33;;
26014;SDS011;13793;55.388;37.844;2022-12-29T12:44:39;30.80;;;15.33;;
26014;SDS011;13793;55.388;37.844;2022-12-29T12:47:34;29.07;;;14.90;;
26014;SDS011;13793;55.388;37.844;2022-12-29T12:53:12;25.67;;;14.17;;
26014;SDS011;13793;55.388;37.844;2022-12-29T12:59:01;24.77;;;12.27;;
26014;SDS011;13793;55.388;37.844;2022-12-29T13:01:54;26.50;;;12.20;;
26014;SDS011;13793;55.388;37.844;2022-12-29T13:04:36;19.27;;;11.73;;
26014;SDS011;13793;55.388;37.844;2022-12-29T13:07:28;26.40;;;13.60;;
26014;SDS011;13793;55.388;37.844;2022-12-29T13:10:19;28.73;;;14.90;;
26014;SDS011;13793;55.388;37.844;2022-12-29T13:18:31;27.30;;;15.17;;
26014;SDS011;13793;55.388;37.844;2022-12-29T13:21:07;28.27;;;15.43;;
26014;SDS011;13793;55.388;37.844;2022-12-29T13:32:14;22.53;;;12.23;;
26014;SDS011;13793;55.388;37.844;2022-12-29T13:34:54;24.17;;;12.73;;
26014;SDS011;13793;55.388;37.844;2022-12-29T13:37:26;23.63;;;13.03;;
26014;SDS011;13793;55.388;37.844;2022-12-29T13:40:14;25.07;;;13.60;;
26014;SDS011;13793;55.388;37.844;2022-12-29T13:42:33;26.00;;;14.53;;
26014;SDS011;13793;55.388;37.844;2022-12-29T13:45:05;29.87;;;14.63;;
26014;SDS011;13793;55.388;37.844;2022-12-29T13:50:21;34.23;;;19.47;;
26014;SDS011;13793;55.388;37.844;2022-12-29T13:53:11;29.30;;;14.57;;
26014;SDS011;13793;55.388;37.844;2022-12-29T13:56:03;37.43;;;19.50;;
26014;SDS011;13793;55.388;37.844;2022-12-29T13:58:50;34.27;;;18.07;;
26014;SDS011;13793;55.388;37.844;2022-12-29T14:01:38;33.93;;;18.33;;
26014;SDS011;13793;55.388;37.844;2022-12-29T14:04:25;32.00;;;16.37;;
26014;SDS011;13793;55.388;37.844;2022-12-29T14:07:01;27.73;;;15.00;;
26014;SDS011;13793;55.388;37.844;2022-12-29T14:12:19;24.60;;;13.93;;
26014;SDS011;13793;55.388;37.844;2022-12-29T14:14:52;28.00;;;14.60;;
26014;SDS011;13793;55.388;37.844;2022-12-29T14:17:23;23.53;;;13.47;;
26014;SDS011;13793;55.388;37.844;2022-12-29T14:19:54;24.53;;;12.23;;
26014;SDS011;13793;55.388;37.844;2022-12-29T14:22:25;30.53;;;14.40;;
26014;SDS011;13793;55.388;37.844;2022-12-29T14:24:56;29.90;;;16.07;;
26014;SDS011;13793;55.388;37.844;2022-12-29T14:33:17;28.03;;;13.03;;
26014;SDS011;13793;55.388;37.844;2022-12-29T14:35:50;28.57;;;13.77;;
26014;SDS011;13793;55.388;37.844;2022-12-29T14:38:22;40.17;;;19.10;;
26014;SDS011;13793;55.388;37.844;2022-12-29T14:41:15;34.80;;;18.97;;
26014;SDS011;13793;55.388;37.844;2022-12-29T14:43:58;39.17;;;21.83;;
26014;SDS011;13793;55.388;37.844;2022-12-29T14:46:41;36.50;;;19.60;;
26014;SDS011;13793;55.388;37.844;2022-12-29T14:49:18;31.83;;;17.30;;
26014;SDS011;13793;55.388;37.844;2022-12-29T14:51:55;38.17;;;17.87;;
26014;SDS011;13793;55.388;37.844;2022-12-29T14:57:15;33.70;;;17.87;;
26014;SDS011;13793;55.388;37.844;2022-12-29T14:59:46;36.20;;;18.23;;
26014;SDS011;13793;55.388;37.844;2022-12-29T15:02:24;37.90;;;17.90;;
26014;SDS011;13793;55.388;37.844;2022-12-29T15:04:51;34.03;;;16.87;;
26014;SDS011;13793;55.388;37.844;2022-12-29T15:07:23;34.33;;;16.50;;
26014;SDS011;13793;55.388;37.844;2022-12-29T15:09:56;39.87;;;17.53;;
26014;SDS011;13793;55.388;37.844;2022-12-29T15:12:35;38.53;;;18.90;;
26014;SDS011;13793;55.388;37.844;2022-12-29T15:15:18;37.67;;;17.60;;
26014;SDS011;13793;55.388;37.844;2022-12-29T15:17:57;38.10;;;17.73;;
26014;SDS011;13793;55.388;37.844;2022-12-29T15:20:31;37.97;;;17.73;;
26014;SDS011;13793;55.388;37.844;2022-12-29T15:23:09;35.47;;;17.80;;
26014;SDS011;13793;55.388;37.844;2022-12-29T15:25:36;37.07;;;18.43;;
26014;SDS011;13793;55.388;37.844;2022-12-29T15:28:06;39.27;;;18.60;;
26014;SDS011;13793;55.388;37.844;2022-12-29T15:30:55;36.80;;;17.17;;
26014;SDS011;13793;55.388;37.844;2022-12-29T15:33:27;41.00;;;18.50;;
26014;SDS011;13793;55.388;37.844;2022-12-29T15:36:02;32.30;;;15.87;;
26014;SDS011;13793;55.388;37.844;2022-12-29T15:38:31;30.07;;;15.47;;
26014;SDS011;13793;55.388;37.844;2022-12-29T15:41:04;33.27;;;15.60;;
26014;SDS011;13793;55.388;37.844;2022-12-29T15:43:42;29.13;;;16.17;;
26014;SDS011;13793;55.388;37.844;2022-12-29T15:46:12;34.53;;;15.90;;
26014;SDS011;13793;55.388;37.844;2022-12-29T15:48:43;33.37;;;16.27;;
26014;SDS011;13793;55.388;37.844;2022-12-29T15:51:22;38.53;;;17.80;;
26014;SDS011;13793;55.388;37.844;2022-12-29T15:53:56;31.43;;;16.13;;
26014;SDS011;13793;55.388;37.844;2022-12-29T15:56:30;32.70;;;16.53;;
26014;SDS011;13793;55.388;37.844;2022-12-29T15:59:01;33.03;;;15.93;;
26014;SDS011;13793;55.388;37.844;2022-12-29T16:01:32;39.80;;;18.40;;
26014;SDS011;13793;55.388;37.844;2022-12-29T16:04:07;43.23;;;17.07;;
26014;SDS011;13793;55.388;37.844;2022-12-29T16:06:39;31.43;;;15.70;;
26014;SDS011;13793;55.388;37.844;2022-12-29T16:09:33;33.33;;;16.97;;
26014;SDS011;13793;55.388;37.844;2022-12-29T16:12:18;35.97;;;17.07;;
26014;SDS011;13793;55.388;37.844;2022-12-29T16:14:48;35.30;;;16.43;;
26014;SDS011;13793;55.388;37.844;2022-12-29T16:17:33;39.07;;;16.60;;
26014;SDS011;13793;55.388;37.844;2022-12-29T16:20:25;32.27;;;16.20;;
26014;SDS011;13793;55.388;37.844;2022-12-29T16:23:17;35.93;;;17.90;;
26014;SDS011;13793;55.388;37.844;2022-12-29T16:25:48;36.63;;;15.90;;
26014;SDS011;13793;55.388;37.844;2022-12-29T16:28:21;34.37;;;16.77;;
26014;SDS011;13793;55.388;37.844;2022-12-29T16:33:44;38.30;;;16.90;;
26014;SDS011;13793;55.388;37.844;2022-12-29T16:36:26;30.20;;;16.37;;
26014;SDS011;13793;55.388;37.844;2022-12-29T16:39:34;36.23;;;16.60;;
26014;SDS011;13793;55.388;37.844;2022-12-29T16:41:50;35.67;;;17.60;;
26014;SDS011;13793;55.388;37.844;2022-12-29T16:46:57;39.50;;;19.97;;
26014;SDS011;13793;55.388;37.844;2022-12-29T16:49:30;37.77;;;19.13;;
26014;SDS011;13793;55.388;37.844;2022-12-29T16:52:10;36.00;;;18.70;;
26014;SDS011;13793;55.388;37.844;2022-12-29T16:54:47;37.77;;;18.87;;
26014;SDS011;13793;55.388;37.844;2022-12-29T16:57:31;36.53;;;18.87;;
26014;SDS011;13793;55.388;37.844;2022-12-29T16:59:59;37.23;;;18.43;;
26014;SDS011;13793;55.388;37.844;2022-12-29T17:02:33;36.83;;;18.43;;
26014;SDS011;13793;55.388;37.844;2022-12-29T17:05:13;27.73;;;13.80;;
26014;SDS011;13793;55.388;37.844;2022-12-29T17:07:45;38.83;;;18.57;;
26014;SDS011;13793;55.388;37.844;2022-12-29T17:10:16;40.97;;;18.87;;
26014;SDS011;13793;55.388;37.844;2022-12-29T17:12:47;33.27;;;17.77;;
26014;SDS011;13793;55.388;37.844;2022-12-29T17:15:24;41.47;;;18.70;;
26014;SDS011;13793;55.388;37.844;2022-12-29T17:17:54;34.33;;;18.03;;
26014;SDS011;13793;55.388;37.844;2022-12-29T17:20:26;39.23;;;18.13;;